sensor_id;sensor_type;location;lat;lon;timestamp;pressure;altitude;pressure_sealevel;temperature;humidity
84918;BME280;75182;51.736;5.318;2024-02-23T00:01:21;98840.47;;;13.94;55.37
84918;BME280;75182;51.736;5.318;2024-02-23T00:11:22;98841.16;;;13.99;55.62
84918;BME280;75182;51.736;5.318;2024-02-23T00:21:22;98858.16;;;14.01;55.85
84918;BME280;75182;51.736;5.318;2024-02-23T00:31:23;98870.63;;;14.03;56.78
84918;BME280;75182;51.736;5.318;2024-02-23T00:41:23;98879.56;;;14.04;56.21
84918;BME280;75182;51.736;5.318;2024-02-23T00:51:23;98876.88;;;14.04;55.27
84918;BME280;75182;51.736;5.318;2024-02-23T01:01:24;98889.34;;;14.07;56.44
84918;BME280;75182;51.736;5.318;2024-02-23T01:11:26;98912.66;;;14.08;56.45
84918;BME280;75182;51.736;5.318;2024-02-23T01:21:26;98907.25;;;14.09;56.47
84918;BME280;75182;51.736;5.318;2024-02-23T01:31:27;98905.44;;;14.08;55.52
84918;BME280;75182;51.736;5.318;2024-02-23T01:41:27;98917.94;;;14.11;56.11
84918;BME280;75182;51.736;5.318;2024-02-23T01:51:28;98951.09;;;14.13;55.57
84918;BME280;75182;51.736;5.318;2024-02-23T02:01:30;98954.78;;;14.10;55.78
84918;BME280;75182;51.736;5.318;2024-02-23T02:11:31;98963.69;;;14.12;55.99
84918;BME280;75182;51.736;5.318;2024-02-23T02:21:32;98969.97;;;14.13;55.38
84918;BME280;75182;51.736;5.318;2024-02-23T02:31:33;98961.94;;;14.11;55.64
84918;BME280;75182;51.736;5.318;2024-02-23T02:41:37;98978.03;;;14.13;54.14
84918;BME280;75182;51.736;5.318;2024-02-23T02:51:37;98979.13;;;14.07;56.17
84918;BME280;75182;51.736;5.318;2024-02-23T03:01:38;98988.97;;;14.08;54.29
84918;BME280;75182;51.736;5.318;2024-02-23T03:11:39;99008.06;;;14.02;55.85
84918;BME280;75182;51.736;5.318;2024-02-23T03:21:39;98987.50;;;13.99;55.24
84918;BME280;75182;51.736;5.318;2024-02-23T03:31:39;99001.94;;;13.97;56.43
84918;BME280;75182;51.736;5.318;2024-02-23T03:41:40;99010.03;;;13.97;54.59
84918;BME280;75182;51.736;5.318;2024-02-23T03:51:40;99002.94;;;13.94;54.97
84918;BME280;75182;51.736;5.318;2024-02-23T04:01:41;99011.97;;;13.93;55.21
84918;BME280;75182;51.736;5.318;2024-02-23T04:11:41;99014.66;;;13.93;54.58
84918;BME280;75182;51.736;5.318;2024-02-23T04:21:42;99017.38;;;13.92;54.16
84918;BME280;75182;51.736;5.318;2024-02-23T04:31:42;99037.28;;;13.88;53.60
84918;BME280;75182;51.736;5.318;2024-02-23T04:41:42;99029.22;;;13.88;52.11
84918;BME280;75182;51.736;5.318;2024-02-23T04:51:43;99024.91;;;13.82;53.28
84918;BME280;75182;51.736;5.318;2024-02-23T05:01:44;99031.44;;;13.75;53.17
84918;BME280;75182;51.736;5.318;2024-02-23T05:11:44;99042.25;;;13.73;51.12
84918;BME280;75182;51.736;5.318;2024-02-23T05:21:46;99049.56;;;13.70;51.55
84918;BME280;75182;51.736;5.318;2024-02-23T05:31:51;99051.59;;;13.63;53.51
84918;BME280;75182;51.736;5.318;2024-02-23T05:41:52;99037.19;;;13.64;50.80
84918;BME280;75182;51.736;5.318;2024-02-23T05:51:52;99042.72;;;13.60;50.13
84918;BME280;75182;51.736;5.318;2024-02-23T06:01:53;99041.19;;;13.51;49.87
84918;BME280;75182;51.736;5.318;2024-02-23T06:11:56;99029.78;;;13.44;49.44
84918;BME280;75182;51.736;5.318;2024-02-23T06:21:57;99037.25;;;13.35;49.48
84918;BME280;75182;51.736;5.318;2024-02-23T06:31:57;99029.22;;;13.33;49.56
84918;BME280;75182;51.736;5.318;2024-02-23T06:41:58;99031.50;;;13.17;49.19
84918;BME280;75182;51.736;5.318;2024-02-23T06:52:00;99035.06;;;13.20;51.78
84918;BME280;75182;51.736;5.318;2024-02-23T07:02:01;99037.75;;;13.20;49.90
84918;BME280;75182;51.736;5.318;2024-02-23T07:12:02;99043.97;;;13.22;48.98
84918;BME280;75182;51.736;5.318;2024-02-23T07:22:02;99034.13;;;13.19;48.64
84918;BME280;75182;51.736;5.318;2024-02-23T07:32:03;99051.09;;;13.23;49.27
84918;BME280;75182;51.736;5.318;2024-02-23T07:42:03;99043.34;;;13.12;47.96
84918;BME280;75182;51.736;5.318;2024-02-23T07:52:06;99030.72;;;13.14;49.61
84918;BME280;75182;51.736;5.318;2024-02-23T08:02:06;99019.97;;;13.14;50.13
84918;BME280;75182;51.736;5.318;2024-02-23T08:12:07;98997.63;;;13.12;48.01
84918;BME280;75182;51.736;5.318;2024-02-23T08:22:07;99000.31;;;13.12;49.75
84918;BME280;75182;51.736;5.318;2024-02-23T08:32:08;98994.06;;;13.10;48.39
84918;BME280;75182;51.736;5.318;2024-02-23T08:42:08;98988.94;;;13.02;49.02
84918;BME280;75182;51.736;5.318;2024-02-23T08:52:08;98992.47;;;13.04;48.97
84918;BME280;75182;51.736;5.318;2024-02-23T09:02:09;99003.25;;;13.04;50.03
84918;BME280;75182;51.736;5.318;2024-02-23T09:12:10;99014.66;;;13.11;48.50
84918;BME280;75182;51.736;5.318;2024-02-23T09:22:10;99011.94;;;13.12;49.89
84918;BME280;75182;51.736;5.318;2024-02-23T09:32:11;99018.19;;;13.13;53.04
84918;BME280;75182;51.736;5.318;2024-02-23T09:42:11;99027.88;;;13.18;53.06
84918;BME280;75182;51.736;5.318;2024-02-23T09:52:12;99050.19;;;13.24;53.66
84918;BME280;75182;51.736;5.318;2024-02-23T10:02:17;99037.50;;;13.27;52.92
84918;BME280;75182;51.736;5.318;2024-02-23T10:12:18;99035.50;;;13.34;53.24
84918;BME280;75182;51.736;5.318;2024-02-23T10:22:18;99048.06;;;13.33;53.78
84918;BME280;75182;51.736;5.318;2024-02-23T10:32:21;99048.75;;;13.40;53.75
84918;BME280;75182;51.736;5.318;2024-02-23T10:42:28;99059.41;;;13.43;53.32
84918;BME280;75182;51.736;5.318;2024-02-23T10:52:33;99088.00;;;13.47;53.26
84918;BME280;75182;51.736;5.318;2024-02-23T11:02:36;99089.66;;;13.51;54.06
84918;BME280;75182;51.736;5.318;2024-02-23T11:12:39;99092.22;;;13.56;53.26
84918;BME280;75182;51.736;5.318;2024-02-23T11:22:40;99092.22;;;13.56;52.49
84918;BME280;75182;51.736;5.318;2024-02-23T11:32:43;99110.94;;;13.60;53.36
84918;BME280;75182;51.736;5.318;2024-02-23T11:42:44;99101.03;;;13.61;52.54
84918;BME280;75182;51.736;5.318;2024-02-23T11:52:44;99117.06;;;13.64;53.19
84918;BME280;75182;51.736;5.318;2024-02-23T12:02:45;99131.38;;;13.66;53.35
84918;BME280;75182;51.736;5.318;2024-02-23T12:12:50;99134.94;;;13.66;52.28
84918;BME280;75182;51.736;5.318;2024-02-23T12:22:50;99144.75;;;13.69;52.24
84918;BME280;75182;51.736;5.318;2024-02-23T12:32:50;99143.81;;;13.70;53.17
84918;BME280;75182;51.736;5.318;2024-02-23T12:42:51;99164.38;;;13.72;53.09
84918;BME280;75182;51.736;5.318;2024-02-23T12:52:51;99162.59;;;13.71;53.22
84918;BME280;75182;51.736;5.318;2024-02-23T13:02:52;99158.97;;;13.72;51.53
84918;BME280;75182;51.736;5.318;2024-02-23T13:12:52;99151.72;;;13.74;50.89
84918;BME280;75182;51.736;5.318;2024-02-23T13:22:53;99156.19;;;13.75;52.97
84918;BME280;75182;51.736;5.318;2024-02-23T13:32:53;99148.97;;;13.76;52.84
84918;BME280;75182;51.736;5.318;2024-02-23T13:42:54;99158.78;;;13.79;52.53
84918;BME280;75182;51.736;5.318;2024-02-23T13:52:54;99156.16;;;13.77;52.82
84918;BME280;75182;51.736;5.318;2024-02-23T14:02:54;99157.88;;;13.80;53.76
84918;BME280;75182;51.736;5.318;2024-02-23T14:12:55;99166.81;;;13.80;52.03
84918;BME280;75182;51.736;5.318;2024-02-23T14:22:56;99172.97;;;13.84;52.46
84918;BME280;75182;51.736;5.318;2024-02-23T14:32:56;99168.44;;;13.86;52.04
84918;BME280;75182;51.736;5.318;2024-02-23T14:42:57;99199.91;;;13.84;53.94
84918;BME280;75182;51.736;5.318;2024-02-23T14:52:57;99181.91;;;13.86;53.37
84918;BME280;75182;51.736;5.318;2024-02-23T15:02:57;99183.72;;;13.85;53.98
84918;BME280;75182;51.736;5.318;2024-02-23T15:12:58;99177.47;;;13.83;53.48
84918;BME280;75182;51.736;5.318;2024-02-23T15:22:58;99223.25;;;13.85;53.98
84918;BME280;75182;51.736;5.318;2024-02-23T15:32:59;99199.72;;;13.90;52.10
84918;BME280;75182;51.736;5.318;2024-02-23T15:42:59;99190.94;;;13.85;54.40
84918;BME280;75182;51.736;5.318;2024-02-23T15:53:00;99197.09;;;13.88;53.71
84918;BME280;75182;51.736;5.318;2024-02-23T16:03:04;99199.84;;;13.87;53.98
84918;BME280;75182;51.736;5.318;2024-02-23T16:13:05;99208.75;;;13.89;54.20
84918;BME280;75182;51.736;5.318;2024-02-23T16:23:06;99203.34;;;13.89;53.49
84918;BME280;75182;51.736;5.318;2024-02-23T16:33:07;99221.28;;;13.90;53.08
84918;BME280;75182;51.736;5.318;2024-02-23T16:43:07;99214.31;;;13.83;53.37
84918;BME280;75182;51.736;5.318;2024-02-23T16:53:08;99215.28;;;13.80;54.10
84918;BME280;75182;51.736;5.318;2024-02-23T17:03:08;99220.56;;;13.85;53.29
84918;BME280;75182;51.736;5.318;2024-02-23T17:13:08;99242.94;;;13.87;52.56
84918;BME280;75182;51.736;5.318;2024-02-23T17:23:08;99265.44;;;13.84;53.43
84918;BME280;75182;51.736;5.318;2024-02-23T17:33:09;99270.75;;;13.87;51.68
84918;BME280;75182;51.736;5.318;2024-02-23T17:43:10;99286.91;;;13.87;53.41
84918;BME280;75182;51.736;5.318;2024-02-23T17:53:11;99290.59;;;13.83;53.66
84918;BME280;75182;51.736;5.318;2024-02-23T18:03:11;99303.13;;;13.84;54.12
84918;BME280;75182;51.736;5.318;2024-02-23T18:13:12;99326.44;;;13.87;53.20
84918;BME280;75182;51.736;5.318;2024-02-23T18:23:12;99333.75;;;13.82;53.80
84918;BME280;75182;51.736;5.318;2024-02-23T18:33:13;99326.53;;;13.82;53.82
84918;BME280;75182;51.736;5.318;2024-02-23T18:43:14;99308.63;;;13.81;54.48
84918;BME280;75182;51.736;5.318;2024-02-23T18:53:14;99312.16;;;13.83;53.74
84918;BME280;75182;51.736;5.318;2024-02-23T19:03:15;99300.50;;;13.83;54.10
84918;BME280;75182;51.736;5.318;2024-02-23T19:13:15;99306.75;;;13.83;53.66
84918;BME280;75182;51.736;5.318;2024-02-23T19:23:17;99312.16;;;13.83;53.33
84918;BME280;75182;51.736;5.318;2024-02-23T19:33:17;99321.22;;;13.81;53.61
84918;BME280;75182;51.736;5.318;2024-02-23T19:43:18;99324.78;;;13.81;53.89
84918;BME280;75182;51.736;5.318;2024-02-23T19:53:18;99323.06;;;13.79;52.81
84918;BME280;75182;51.736;5.318;2024-02-23T20:03:18;99334.72;;;13.79;51.49
84918;BME280;75182;51.736;5.318;2024-02-23T20:13:19;99323.25;;;13.72;51.71
84918;BME280;75182;51.736;5.318;2024-02-23T20:23:19;99327.84;;;13.69;51.71
84918;BME280;75182;51.736;5.318;2024-02-23T20:33:19;99347.66;;;13.66;52.90
84918;BME280;75182;51.736;5.318;2024-02-23T20:43:19;99354.84;;;13.66;52.19
84918;BME280;75182;51.736;5.318;2024-02-23T20:53:20;99373.75;;;13.64;51.91
84918;BME280;75182;51.736;5.318;2024-02-23T21:03:20;99410.66;;;13.59;53.22
84918;BME280;75182;51.736;5.318;2024-02-23T21:13:20;99406.06;;;13.64;53.22
84918;BME280;75182;51.736;5.318;2024-02-23T21:23:21;99407.03;;;13.62;54.06
84918;BME280;75182;51.736;5.318;2024-02-23T21:33:22;99413.25;;;13.64;53.92
84918;BME280;75182;51.736;5.318;2024-02-23T21:43:22;99396.16;;;13.65;53.30
84918;BME280;75182;51.736;5.318;2024-02-23T21:53:23;99395.38;;;13.61;53.81
84918;BME280;75182;51.736;5.318;2024-02-23T22:03:23;99393.41;;;13.66;52.66
84918;BME280;75182;51.736;5.318;2024-02-23T22:13:25;99392.59;;;13.64;52.53
84918;BME280;75182;51.736;5.318;2024-02-23T22:23:25;99394.50;;;13.59;53.33
84918;BME280;75182;51.736;5.318;2024-02-23T22:33:25;99404.44;;;13.57;53.09
84918;BME280;75182;51.736;5.318;2024-02-23T22:43:26;99406.22;;;13.58;51.87
84918;BME280;75182;51.736;5.318;2024-02-23T22:53:27;99404.59;;;13.53;52.09
84918;BME280;75182;51.736;5.318;2024-02-23T23:03:28;99406.47;;;13.49;53.24
84918;BME280;75182;51.736;5.318;2024-02-23T23:13:28;99421.69;;;13.50;51.50
84918;BME280;75182;51.736;5.318;2024-02-23T23:23:29;99427.25;;;13.44;52.41
84918;BME280;75182;51.736;5.318;2024-02-23T23:33:29;99431.66;;;13.46;51.95
84918;BME280;75182;51.736;5.318;2024-02-23T23:43:29;99436.22;;;13.43;53.18
84918;BME280;75182;51.736;5.318;2024-02-23T23:53:30;99441.63;;;13.43;53.01
